Forside
METAR-TAF:

METAR-TAF

Lufthavne :

Curaçao, Nederlandske Antiller

Breddekreds: 12-12N, længdekreds: 068-58W, højde: 9 m

Aktuelle vejr

Denne rapport blev lavet for 1 time og 1 minutter siden, kl. 09:00 UTC
Vind 7 kt fra øst
Temperatur 26°C
Fugtighed 89%
Tryk 1008 hPa
Sigt 10 km eller mere

METAR: TNCC 230900Z AUTO 09007KT 9999 NSC 26/24 Q1008 NOSIG

Tid: 06:01 (10:01 UTC)

Vejrudsigter

Denne rapport blev lavet for 6 timer og 31 minutter siden, kl. 03:30 UTC
Foreløbig gælder fra 23 på 06 UTC til 24 på 06 UTC
Vind 12 kt fra øst
Sigt 10 km eller mere
Spredte skyer i en højde af 1800 ft
Sandsynlighed 40% :
Midlertidig
fra 23 på 06 UTC til 23 på 14 UTC
Sigt: 8000 m
Brudte skyer i en højde af 1500 ft
regnbyger

TAF: TNCC 230330Z 2306/2406 09012KT 9999 SCT018 PROB40 TEMPO 2306/2314 8000 SHRA BKN015

Vejrobservationer og prognoser fra mere end 4000 lufthavne (METAR og TAF).

De gule og røde prikker repræsenterer de meteorologiske stationer.

Flyt musen over at se navnet på stationen.

Så klik over at se vejr observationer og prognoser.

At skifte det kort: Klik på de grønne knapper med et sort kors for at zoome ind; på den grønne knap med en bindestreg for at zoome ud; eller på de grønne pile for tilstødende kort.


METAR-TAF: